createdAt,value
2022-10-23T00:02:37.049Z,100850.34
2022-10-23T00:05:40.807Z,100844.69
2022-10-23T00:08:42.961Z,100853.59
2022-10-23T00:11:47.748Z,100852.75
2022-10-23T00:14:49.579Z,100865.28
2022-10-23T00:17:51.446Z,100859.31
2022-10-23T00:20:53.351Z,100864.78
2022-10-23T00:23:55.282Z,100866.66
2022-10-23T00:26:57.405Z,100871.37
2022-10-23T00:29:59.468Z,100868.09
2022-10-23T00:33:01.320Z,100874.72
2022-10-23T00:36:07.264Z,100875.62
2022-10-23T00:39:09.213Z,100883.78
2022-10-23T00:42:12.733Z,100888.72
2022-10-23T00:45:19.645Z,100898.50
2022-10-23T00:48:21.709Z,100893.94
2022-10-23T00:51:23.682Z,100901.16
2022-10-23T00:54:25.917Z,100898.75
2022-10-23T01:00:46.365Z,100914.47
2022-10-23T01:03:48.237Z,100912.91
2022-10-23T01:07:04.590Z,100918.75
2022-10-23T01:10:10.552Z,100917.66
2022-10-23T01:13:17.359Z,100928.06
2022-10-23T01:16:24.198Z,100931.25
2022-10-23T01:19:44.945Z,100923.53
2022-10-23T01:23:05.696Z,100931.97
2022-10-23T01:26:16.841Z,100933.31
2022-10-23T01:29:21.295Z,100945.91
2022-10-23T01:32:23.345Z,100946.66
2022-10-23T01:35:29.714Z,100935.47
2022-10-23T01:38:36.281Z,100945.69
2022-10-23T01:41:40.633Z,100942.22
2022-10-23T01:44:51.606Z,100945.25
2022-10-23T01:47:53.724Z,100936.56
2022-10-23T01:50:55.948Z,100936.41
2022-10-23T01:53:58.478Z,100936.81
2022-10-23T01:57:00.481Z,100937.66
2022-10-23T02:00:05.082Z,100936.56
2022-10-23T02:03:06.966Z,100930.53
2022-10-23T02:06:08.954Z,100931.84
2022-10-23T02:09:10.781Z,100941.50
2022-10-23T02:12:13.930Z,100925.31
2022-10-23T02:15:29.220Z,100926.53
2022-10-23T02:18:49.291Z,100940.34
2022-10-23T02:21:51.117Z,100935.13
2022-10-23T02:24:56.576Z,100934.47
2022-10-23T02:27:58.539Z,100918.91
2022-10-23T02:31:00.688Z,100926.09
2022-10-23T02:34:03.046Z,100935.69
2022-10-23T02:37:04.908Z,100934.84
2022-10-23T02:40:07.064Z,100932.44
2022-10-23T02:43:11.276Z,100942.22
2022-10-23T02:46:25.209Z,100939.31
2022-10-23T02:49:45.086Z,100964.22
2022-10-23T02:53:10.201Z,100952.56
2022-10-23T02:56:14.773Z,100952.34
2022-10-23T02:59:19.983Z,100954.91
2022-10-23T03:02:23.739Z,100958.94
2022-10-23T03:05:32.631Z,100964.34
2022-10-23T03:08:41.425Z,100976.50
2022-10-23T03:11:43.261Z,100966.03
2022-10-23T03:14:45.076Z,100960.47
2022-10-23T03:17:46.896Z,100973.13
2022-10-23T03:20:48.896Z,100978.34
2022-10-23T03:23:50.867Z,100978.16
2022-10-23T03:26:52.931Z,100986.47
2022-10-23T03:29:54.792Z,100977.88
2022-10-23T03:32:56.647Z,100985.03
2022-10-23T03:35:58.518Z,100968.56
2022-10-23T03:39:00.329Z,100985.53
2022-10-23T03:42:02.131Z,101001.59
2022-10-23T03:45:04.382Z,101000.31
2022-10-23T03:48:06.683Z,100998.53
2022-10-23T03:51:08.621Z,101000.78
2022-10-23T03:54:10.496Z,101006.97
2022-10-23T03:57:12.638Z,101010.53
2022-10-23T04:00:14.580Z,101004.44
2022-10-23T04:03:16.429Z,101002.94
2022-10-23T04:06:18.266Z,101005.97
2022-10-23T04:09:20.147Z,101001.69
2022-10-23T04:12:22.360Z,101002.19
2022-10-23T04:15:24.253Z,101000.88
2022-10-23T04:18:26.240Z,100992.44
2022-10-23T04:21:28.040Z,100994.88
2022-10-23T04:24:30.055Z,100990.53
2022-10-23T04:27:31.885Z,100990.31
2022-10-23T04:30:34.416Z,100993.63
2022-10-23T04:33:36.291Z,100985.63
2022-10-23T04:36:38.178Z,100985.06
2022-10-23T04:39:40.064Z,100979.37
2022-10-23T04:42:42.216Z,100985.87
2022-10-23T04:45:44.485Z,100980.66
2022-10-23T04:48:46.457Z,100978.75
2022-10-23T04:51:48.312Z,100979.44
2022-10-23T04:54:50.159Z,100984.06
2022-10-23T04:57:52.342Z,100984.22
2022-10-23T05:00:54.296Z,101002.94
2022-10-23T05:03:56.979Z,101009.19
2022-10-23T05:06:58.961Z,101001.44
2022-10-23T05:10:00.814Z,101004.81
2022-10-23T05:13:02.748Z,101000.69
2022-10-23T05:16:04.852Z,101000.09
2022-10-23T05:19:07.622Z,101010.63
2022-10-23T05:22:09.869Z,101016.03
2022-10-23T05:25:12.238Z,101016.25
2022-10-23T05:28:14.301Z,101001.56
2022-10-23T05:31:16.206Z,100996.53
2022-10-23T05:34:18.689Z,101001.66
2022-10-23T05:37:20.618Z,101013.00
2022-10-23T05:40:22.506Z,101001.81
2022-10-23T05:43:26.079Z,101016.44
2022-10-23T05:46:29.015Z,101019.59
2022-10-23T05:49:30.839Z,101026.13
2022-10-23T05:52:32.633Z,101038.22
2022-10-23T05:55:34.878Z,101027.75
2022-10-23T05:58:36.893Z,101026.03
2022-10-23T06:01:38.854Z,101023.47
2022-10-23T06:04:41.120Z,101019.69
2022-10-23T06:07:43.846Z,101020.91
2022-10-23T06:10:45.923Z,101030.37
2022-10-23T06:13:50.694Z,101025.62
2022-10-23T06:16:52.845Z,101028.06
2022-10-23T06:20:00.886Z,101029.50
2022-10-23T06:23:02.887Z,101026.94
2022-10-23T06:26:05.103Z,101022.47
2022-10-23T06:29:07.029Z,101035.75
2022-10-23T06:32:09.023Z,101028.19
2022-10-23T06:35:10.843Z,101050.16
2022-10-23T06:38:13.500Z,101055.72
2022-10-23T06:41:20.195Z,101053.38
2022-10-23T06:44:22.005Z,101059.38
2022-10-23T06:47:23.954Z,101061.56
2022-10-23T06:50:26.112Z,101071.91
2022-10-23T06:53:28.290Z,101069.12
2022-10-23T06:56:30.445Z,101053.41
2022-10-23T06:59:32.610Z,101062.72
2022-10-23T07:02:34.488Z,101071.19
2022-10-23T07:05:36.408Z,101080.50
2022-10-23T07:08:38.230Z,101065.81
2022-10-23T07:11:40.070Z,101069.00
2022-10-23T07:14:41.930Z,101072.44
2022-10-23T07:17:43.797Z,101075.16
2022-10-23T07:20:49.442Z,101077.16
2022-10-23T07:23:51.269Z,101083.09
2022-10-23T07:26:53.107Z,101083.22
2022-10-23T07:29:54.980Z,101092.09
2022-10-23T07:32:56.782Z,101085.66
2022-10-23T07:35:58.678Z,101098.22
2022-10-23T07:39:00.480Z,101099.19
2022-10-23T07:42:02.772Z,101088.91
2022-10-23T07:45:05.291Z,101087.66
2022-10-23T07:48:07.857Z,101082.75
2022-10-23T07:51:12.256Z,101086.19
2022-10-23T07:54:14.215Z,101080.00
2022-10-23T07:57:16.059Z,101090.16
2022-10-23T08:00:17.874Z,101093.53
2022-10-23T08:03:20.416Z,101093.78
2022-10-23T08:06:22.466Z,101066.56
2022-10-23T08:09:24.336Z,101081.37
2022-10-23T08:12:26.244Z,101090.41
2022-10-23T08:15:28.050Z,101089.81
2022-10-23T08:18:29.871Z,101083.22
2022-10-23T08:21:31.871Z,101080.16
2022-10-23T08:24:33.743Z,101073.56
2022-10-23T08:27:35.581Z,101058.13
2022-10-23T08:30:37.899Z,101078.72
2022-10-23T08:33:40.159Z,101077.72
2022-10-23T08:36:42.195Z,101075.16
2022-10-23T08:39:44.112Z,101073.81
2022-10-23T08:42:47.142Z,101071.94
2022-10-23T08:45:50.074Z,101076.97
2022-10-23T08:48:52.563Z,101085.97
2022-10-23T08:51:55.770Z,101084.06
2022-10-23T08:55:14.192Z,101086.69
2022-10-23T08:58:23.464Z,101081.91
2022-10-23T09:01:28.626Z,101073.25
2022-10-23T09:04:30.681Z,101079.50
2022-10-23T09:07:35.596Z,101082.41
2022-10-23T09:11:06.899Z,101069.50
2022-10-23T09:14:08.701Z,101070.69
2022-10-23T09:17:17.331Z,101066.06
2022-10-23T09:20:20.388Z,101075.44
2022-10-23T09:23:22.946Z,101075.91
2022-10-23T09:26:24.817Z,101080.94
2022-10-23T09:29:28.461Z,101071.37
2022-10-23T09:32:33.892Z,101071.47
2022-10-23T09:35:35.794Z,101075.47
2022-10-23T09:38:37.587Z,101075.66
2022-10-23T09:41:39.918Z,101086.03
2022-10-23T09:44:47.771Z,101089.47
2022-10-23T09:47:49.585Z,101091.34
2022-10-23T09:51:17.799Z,101082.94
2022-10-23T09:54:21.378Z,101092.78
2022-10-23T09:57:30.932Z,101087.22
2022-10-23T10:00:32.957Z,101086.25
2022-10-23T10:03:34.979Z,101080.53
2022-10-23T10:06:37.198Z,101090.94
2022-10-23T10:09:39.153Z,101075.31
2022-10-23T10:12:41.368Z,101066.16
2022-10-23T10:15:50.987Z,101072.00
2022-10-23T10:18:56.348Z,101070.34
2022-10-23T10:22:16.605Z,101053.34
2022-10-23T10:25:21.518Z,101051.97
2022-10-23T10:28:45.691Z,101039.59
2022-10-23T10:31:56.674Z,101037.41
2022-10-23T10:34:58.857Z,101040.34
2022-10-23T10:38:09.908Z,101036.50
2022-10-23T10:41:38.125Z,101036.31
2022-10-23T10:45:04.498Z,101039.84
2022-10-23T10:48:14.213Z,101030.97
2022-10-23T10:51:36.288Z,101036.03
2022-10-23T10:54:59.702Z,101042.06
2022-10-23T10:58:03.665Z,101033.59
2022-10-23T11:01:11.593Z,101016.19
2022-10-23T11:04:14.713Z,101006.28
2022-10-23T11:07:19.550Z,101013.63
2022-10-23T11:10:21.634Z,101003.50
2022-10-23T11:13:27.632Z,101005.47
2022-10-23T11:16:30.472Z,100991.03
2022-10-23T11:19:55.223Z,100987.59
2022-10-23T11:23:09.371Z,100975.56
2022-10-23T11:26:29.584Z,100985.09
2022-10-23T11:29:51.800Z,100980.16
2022-10-23T11:33:08.307Z,100977.91
2022-10-23T11:36:17.930Z,100983.47
2022-10-23T11:39:19.891Z,100987.59
2022-10-23T11:42:32.522Z,100975.53
2022-10-23T11:45:38.317Z,100979.13
2022-10-23T11:48:41.181Z,100973.78
2022-10-23T11:51:42.970Z,100978.12
2022-10-23T11:54:44.831Z,100980.31
2022-10-23T11:57:59.841Z,100976.16
2022-10-23T12:01:03.385Z,100975.22
2022-10-23T12:04:14.627Z,100980.97
2022-10-23T12:07:17.114Z,100973.41
2022-10-23T12:10:20.558Z,100966.09
2022-10-23T12:13:34.578Z,100966.06
2022-10-23T12:16:36.757Z,100958.78
2022-10-23T12:19:43.882Z,100955.56
2022-10-23T12:22:56.046Z,100947.34
2022-10-23T12:26:16.666Z,100943.09
2022-10-23T12:29:37.027Z,100924.38
2022-10-23T12:32:44.762Z,100925.56
2022-10-23T12:35:49.913Z,100926.41
2022-10-23T12:38:51.984Z,100938.22
2022-10-23T12:41:53.804Z,100931.78
2022-10-23T12:45:02.368Z,100930.88
2022-10-23T12:48:04.438Z,100925.13
2022-10-23T12:51:06.392Z,100914.78
2022-10-23T12:54:18.270Z,100919.16
2022-10-23T12:57:28.145Z,100915.16
2022-10-23T13:00:31.128Z,100907.13
2022-10-23T13:03:33.833Z,100903.94
2022-10-23T13:06:36.042Z,100904.03
2022-10-23T13:09:46.856Z,100903.38
2022-10-23T13:13:05.337Z,100898.44
2022-10-23T13:16:33.707Z,100887.41
2022-10-23T13:19:35.737Z,100875.34
2022-10-23T13:22:39.971Z,100873.94
2022-10-23T13:25:41.937Z,100878.53
2022-10-23T13:28:44.935Z,100870.56
2022-10-23T13:31:46.931Z,100875.78
2022-10-23T13:35:03.654Z,100873.72
2022-10-23T13:38:12.330Z,100863.84
2022-10-23T13:41:20.213Z,100861.84
2022-10-23T13:44:22.786Z,100865.50
2022-10-23T13:47:24.823Z,100862.28
2022-10-23T13:50:26.709Z,100851.53
2022-10-23T13:53:30.528Z,100866.69
2022-10-23T13:56:32.415Z,100862.56
2022-10-23T13:59:34.492Z,100855.47
2022-10-23T14:02:36.366Z,100854.19
2022-10-23T14:05:38.262Z,100850.03
2022-10-23T14:08:40.159Z,100850.69
2022-10-23T14:11:42.200Z,100846.94
2022-10-23T14:14:44.105Z,100840.41
2022-10-23T14:17:45.896Z,100843.59
2022-10-23T14:20:48.365Z,100838.56
2022-10-23T14:23:50.640Z,100837.06
2022-10-23T14:26:52.567Z,100817.75
2022-10-23T14:29:54.401Z,100824.63
2022-10-23T14:32:56.373Z,100819.69
2022-10-23T14:35:58.245Z,100818.66
2022-10-23T14:39:00.619Z,100819.44
2022-10-23T14:42:02.531Z,100820.97
2022-10-23T14:45:04.825Z,100815.03
2022-10-23T14:48:06.764Z,100806.81
2022-10-23T14:51:15.998Z,100804.69
2022-10-23T14:54:18.002Z,100802.50
2022-10-23T14:57:21.882Z,100792.75
2022-10-23T15:00:24.129Z,100795.34
2022-10-23T15:03:26.498Z,100800.19
2022-10-23T15:06:28.461Z,100794.97
2022-10-23T15:09:32.750Z,100807.09
2022-10-23T15:12:37.954Z,100800.72
2022-10-23T15:15:39.904Z,100793.50
2022-10-23T15:18:41.746Z,100784.28
2022-10-23T15:21:43.984Z,100769.81
2022-10-23T15:24:46.480Z,100754.78
2022-10-23T15:27:48.484Z,100752.88
2022-10-23T15:30:50.382Z,100753.69
2022-10-23T15:33:52.392Z,100749.78
2022-10-23T15:36:54.625Z,100768.87
2022-10-23T15:40:01.412Z,100767.16
2022-10-23T15:43:05.305Z,100770.25
2022-10-23T15:46:07.123Z,100781.34
2022-10-23T15:49:09.083Z,100782.16
2022-10-23T15:55:12.784Z,100780.81
2022-10-23T15:58:14.664Z,100779.19
2022-10-23T16:01:16.584Z,100782.94
2022-10-23T16:04:18.617Z,100780.75
2022-10-23T16:07:20.696Z,100775.94
2022-10-23T16:10:23.542Z,100781.00
2022-10-23T16:13:25.790Z,100781.56
2022-10-23T16:16:28.124Z,100803.31
2022-10-23T16:19:30.031Z,100788.81
2022-10-23T16:22:32.078Z,100790.38
2022-10-23T16:25:37.312Z,100799.59
2022-10-23T16:28:39.126Z,100797.38
2022-10-23T16:31:41.263Z,100804.69
2022-10-23T16:34:43.111Z,100827.63
2022-10-23T16:37:45.139Z,100831.09
2022-10-23T16:40:51.241Z,100824.94
2022-10-23T16:43:53.297Z,100829.13
2022-10-23T16:46:55.301Z,100826.16
2022-10-23T16:49:57.364Z,100819.41
2022-10-23T16:52:59.520Z,100810.97
2022-10-23T16:56:03.409Z,100812.91
2022-10-23T16:59:05.714Z,100802.97
2022-10-23T17:02:09.013Z,100828.88
2022-10-23T17:05:11.087Z,100839.44
2022-10-23T17:08:12.953Z,100837.03
2022-10-23T17:11:20.817Z,100850.78
2022-10-23T17:14:25.086Z,100852.00
2022-10-23T17:17:26.935Z,100842.34
2022-10-23T17:20:28.779Z,100844.19
2022-10-23T17:23:30.800Z,100837.00
2022-10-23T17:26:33.120Z,100841.22
2022-10-23T17:29:35.275Z,100838.22
2022-10-23T17:32:37.107Z,100832.59
2022-10-23T17:35:39.679Z,100819.13
2022-10-23T17:38:41.785Z,100819.69
2022-10-23T17:41:44.207Z,100829.06
2022-10-23T17:44:46.132Z,100821.78
2022-10-23T17:47:48.145Z,100830.28
2022-10-23T17:50:50.116Z,100824.69
2022-10-23T17:53:52.684Z,100815.00
2022-10-23T17:56:54.838Z,100812.97
2022-10-23T17:59:56.681Z,100801.69
2022-10-23T18:02:58.719Z,100807.13
2022-10-23T18:06:08.056Z,100803.72
2022-10-23T18:09:10.003Z,100804.41
2022-10-23T18:12:11.947Z,100807.22
2022-10-23T18:15:13.806Z,100814.88
2022-10-23T18:18:15.675Z,100808.03
2022-10-23T18:21:18.151Z,100801.69
2022-10-23T18:24:19.980Z,100817.06
2022-10-23T18:27:21.888Z,100819.81
2022-10-23T18:30:23.736Z,100814.50
2022-10-23T18:33:26.578Z,100812.97
2022-10-23T18:36:29.760Z,100815.94
2022-10-23T18:39:31.819Z,100822.59
2022-10-23T18:42:35.077Z,100819.84
2022-10-23T18:45:37.309Z,100805.94
2022-10-23T18:48:39.255Z,100796.25
2022-10-23T18:51:41.158Z,100801.47
2022-10-23T18:54:43.167Z,100803.00
2022-10-23T18:57:45.458Z,100796.97
2022-10-23T19:00:47.663Z,100795.91
2022-10-23T19:03:50.260Z,100800.75
2022-10-23T19:06:52.188Z,100810.13
2022-10-23T19:09:54.927Z,100805.12
2022-10-23T19:12:56.766Z,100802.13
2022-10-23T19:15:59.423Z,100800.97
2022-10-23T19:19:03.408Z,100804.16
2022-10-23T19:22:07.379Z,100798.84
2022-10-23T19:25:15.286Z,100799.25
2022-10-23T19:28:17.321Z,100810.00
2022-10-23T19:31:19.330Z,100801.16
2022-10-23T19:34:22.664Z,100808.00
2022-10-23T19:37:24.753Z,100801.47
2022-10-23T19:40:26.822Z,100805.06
2022-10-23T19:43:29.034Z,100809.94
2022-10-23T19:46:30.930Z,100811.09
2022-10-23T19:49:32.835Z,100805.53
2022-10-23T19:52:34.845Z,100805.72
2022-10-23T19:55:36.774Z,100793.75
2022-10-23T19:58:38.921Z,100807.63
2022-10-23T20:01:43.856Z,100802.66
2022-10-23T20:04:48.352Z,100807.59
2022-10-23T20:07:51.417Z,100801.81
2022-10-23T20:10:53.394Z,100817.69
2022-10-23T20:13:55.592Z,100814.84
2022-10-23T20:16:57.449Z,100822.03
2022-10-23T20:19:59.265Z,100814.06
2022-10-23T20:23:01.201Z,100810.75
2022-10-23T20:26:04.206Z,100807.16
2022-10-23T20:29:06.046Z,100808.84
2022-10-23T20:32:08.234Z,100813.00
2022-10-23T20:35:10.031Z,100805.63
2022-10-23T20:38:11.906Z,100809.72
2022-10-23T20:41:13.853Z,100800.28
2022-10-23T20:47:18.866Z,100789.41
2022-10-23T20:50:21.020Z,100792.19
2022-10-23T20:53:22.997Z,100786.28
2022-10-23T20:56:31.064Z,100780.56
2022-10-23T20:59:34.231Z,100772.13
2022-10-23T21:02:36.127Z,100765.97
2022-10-23T21:05:38.297Z,100756.50
2022-10-23T21:08:40.432Z,100768.28
2022-10-23T21:11:42.329Z,100753.06
2022-10-23T21:14:44.161Z,100754.22
2022-10-23T21:17:49.134Z,100755.37
2022-10-23T21:20:51.573Z,100762.81
2022-10-23T21:23:54.582Z,100751.59
2022-10-23T21:26:56.420Z,100767.50
2022-10-23T21:29:58.370Z,100757.81
2022-10-23T21:33:00.178Z,100764.97
2022-10-23T21:36:13.410Z,100757.00
2022-10-23T21:39:16.072Z,100771.69
2022-10-23T21:42:19.301Z,100765.31
2022-10-23T21:45:21.351Z,100759.16
2022-10-23T21:48:23.189Z,100755.66
2022-10-23T21:51:29.579Z,100779.63
2022-10-23T21:54:31.405Z,100775.78
2022-10-23T21:57:33.486Z,100776.69
2022-10-23T22:00:35.341Z,100769.84
2022-10-23T22:03:37.291Z,100754.75
2022-10-23T22:06:39.198Z,100754.34
2022-10-23T22:09:41.177Z,100745.91
2022-10-23T22:12:43.061Z,100751.56
2022-10-23T22:18:51.590Z,100758.41
2022-10-23T22:21:53.409Z,100759.00
2022-10-23T22:24:55.345Z,100753.72
2022-10-23T22:27:57.280Z,100759.16
2022-10-23T22:30:59.832Z,100757.22
2022-10-23T22:34:13.095Z,100762.84
2022-10-23T22:37:24.002Z,100761.75
2022-10-23T22:40:25.830Z,100768.41
2022-10-23T22:43:27.982Z,100757.62
2022-10-23T22:46:29.999Z,100769.00
2022-10-23T22:49:31.955Z,100778.09
2022-10-23T22:52:33.793Z,100773.25
2022-10-23T22:55:36.834Z,100773.28
2022-10-23T22:58:38.742Z,100757.81
2022-10-23T23:01:41.882Z,100748.03
2022-10-23T23:04:43.828Z,100758.34
2022-10-23T23:07:45.971Z,100740.59
2022-10-23T23:10:55.034Z,100734.06
2022-10-23T23:13:56.961Z,100735.97
2022-10-23T23:16:59.147Z,100745.25
2022-10-23T23:20:00.955Z,100747.91
2022-10-23T23:23:03.045Z,100737.53
2022-10-23T23:26:05.817Z,100735.84
2022-10-23T23:29:07.693Z,100744.94
2022-10-23T23:32:10.321Z,100749.13
2022-10-23T23:35:12.166Z,100744.56
2022-10-23T23:38:14.016Z,100751.44
2022-10-23T23:41:16.745Z,100747.28
2022-10-23T23:44:18.656Z,100739.69
2022-10-23T23:47:20.564Z,100734.94
2022-10-23T23:50:22.633Z,100730.44
2022-10-23T23:53:24.537Z,100734.53
2022-10-23T23:56:26.375Z,100732.22
2022-10-23T23:59:28.300Z,100732.91
